SCBA

Details ICAO SCBA (BBA)
Name Balmaceda
Region Chile
Timezone America/Santiago (UTC-3.0)
Plans Departing 29
Arriving 38
Stats Elevation 1,654 ft / 504 m (AMSL)
Location -45.916025° -71.689470°
Runways 1
Magnetic Variation 9.888° E
Sunrise 2017-12-11 08:51:36 UTC / 2017-12-11 05:51:36 Local
Sunset 2017-12-12 00:31:30 UTC / 2017-12-11 21:31:30 Local
Advertisement - Login to hide

Runways

ID Width Length Bearing (true) Bearing (mag) Surface Threshold Offset Overrun Length
09 148 ft / 45 m 8,213 ft / 2,503 m 89.01° 79.12° Asphalt 0 ft / 0 m 180 ft / 55 m
27 148 ft / 45 m 8,213 ft / 2,503 m 268.99° 259.10° Asphalt 0 ft / 0 m 190 ft / 58 m

Map

Weather


0- 5 10 15 20 25 30 35+ Temperature / ° C

Clouds and Precipitation
Forecast for 2017-12-12 00:00 UTC. Updated 2 hours ago

Ground ~20,000 ft ~40,000 ft Winds

METAR

SCBA 120100Z AUTO 31018KT CAVOK 15/09 Q1006

TAF

TAF SCBA 112240Z 1200/1300 30025KT CAVOK TN09/1210Z TX19/1219Z BECMG 1204/1206 28015KT BECMG 1218/1220 30025KT

Frequencies

Ground 121.90 MHz GND
Approach 119.70 MHz APP
Tower 118.50 MHz TWR
Warning: Do not use this data for real-world aviation or navigation. No guarantee of current accuracy is given.